createdAt,value
2023-11-12T00:01:52.981Z,68.00
2023-11-12T00:04:19.827Z,67.70
2023-11-12T00:06:45.783Z,67.77
2023-11-12T00:09:11.974Z,68.08
2023-11-12T00:11:41.361Z,68.39
2023-11-12T00:14:07.296Z,67.82
2023-11-12T00:16:33.504Z,68.16
2023-11-12T00:18:59.424Z,67.81
2023-11-12T00:21:25.279Z,68.08
2023-11-12T00:23:54.443Z,67.85
2023-11-12T00:26:21.633Z,67.99
2023-11-12T00:28:47.519Z,67.90
2023-11-12T00:31:13.421Z,67.57
2023-11-12T00:33:41.817Z,67.61
2023-11-12T00:36:08.870Z,67.46
2023-11-12T00:38:35.688Z,67.22
2023-11-12T00:41:01.561Z,68.13
2023-11-12T00:43:27.765Z,67.76
2023-11-12T00:45:58.622Z,67.88
2023-11-12T00:48:24.493Z,68.13
2023-11-12T00:50:50.311Z,67.90
2023-11-12T00:53:16.206Z,68.39
2023-11-12T00:55:42.151Z,67.99
2023-11-12T00:58:08.070Z,68.33
2023-11-12T01:00:34.131Z,68.02
2023-11-12T01:03:00.056Z,68.34
2023-11-12T01:05:25.999Z,68.13
2023-11-12T01:07:51.835Z,68.30
2023-11-12T01:10:17.702Z,68.25
2023-11-12T01:12:43.555Z,68.15
2023-11-12T01:15:09.501Z,68.11
2023-11-12T01:17:35.638Z,68.16
2023-11-12T01:20:01.779Z,68.08
2023-11-12T01:22:28.002Z,67.92
2023-11-12T01:24:53.889Z,67.92
2023-11-12T01:27:19.718Z,67.42
2023-11-12T01:29:45.562Z,67.85
2023-11-12T01:32:11.354Z,66.96
2023-11-12T01:34:37.181Z,66.99
2023-11-12T01:37:03.015Z,67.70
2023-11-12T01:39:28.926Z,67.51
2023-11-12T01:41:54.745Z,67.87
2023-11-12T01:44:20.779Z,67.43
2023-11-12T01:46:46.776Z,67.17
2023-11-12T01:49:13.339Z,67.52
2023-11-12T01:51:39.273Z,67.34
2023-11-12T01:54:05.353Z,66.30
2023-11-12T01:56:31.536Z,66.21
2023-11-12T01:58:58.245Z,66.28
2023-11-12T02:01:24.136Z,65.86
2023-11-12T02:03:52.549Z,66.22
2023-11-12T02:06:18.793Z,66.53
2023-11-12T02:08:45.481Z,65.69
2023-11-12T02:11:14.223Z,66.02
2023-11-12T02:13:43.808Z,65.98
2023-11-12T02:16:10.665Z,65.82
2023-11-12T02:18:36.583Z,65.23
2023-11-12T02:21:03.567Z,65.69
2023-11-12T02:23:30.178Z,65.40
2023-11-12T02:25:57.928Z,65.08
2023-11-12T02:28:23.888Z,64.55
2023-11-12T02:30:55.871Z,64.44
2023-11-12T02:33:27.793Z,64.33
2023-11-12T02:35:55.972Z,64.62
2023-11-12T02:38:23.579Z,64.91
2023-11-12T02:40:50.019Z,64.44
2023-11-12T02:43:16.764Z,64.64
2023-11-12T02:45:42.740Z,64.23
2023-11-12T02:48:08.772Z,64.22
2023-11-12T02:50:36.017Z,64.96
2023-11-12T02:53:07.641Z,64.66
2023-11-12T02:55:34.297Z,64.17
2023-11-12T02:58:00.395Z,64.70
2023-11-12T03:00:27.947Z,64.82
2023-11-12T03:02:55.414Z,64.35
2023-11-12T03:05:21.376Z,64.53
2023-11-12T03:07:47.233Z,65.38
2023-11-12T03:10:13.889Z,65.43
2023-11-12T03:12:39.774Z,65.25
2023-11-12T03:15:07.308Z,64.57
2023-11-12T03:17:34.631Z,64.36
2023-11-12T03:20:04.554Z,65.03
2023-11-12T03:22:34.855Z,65.09
2023-11-12T03:25:01.586Z,65.29
2023-11-12T03:27:28.155Z,65.35
2023-11-12T03:29:53.954Z,65.09
2023-11-12T03:32:21.878Z,65.11
2023-11-12T03:34:51.291Z,64.83
2023-11-12T03:37:21.160Z,65.36
2023-11-12T03:39:48.270Z,65.01
2023-11-12T03:42:16.317Z,65.40
2023-11-12T03:44:47.238Z,64.85
2023-11-12T03:47:13.361Z,65.04
2023-11-12T03:49:42.565Z,65.66
2023-11-12T03:52:08.957Z,65.33
2023-11-12T03:54:36.324Z,65.30
2023-11-12T03:57:02.152Z,65.44
2023-11-12T03:59:27.955Z,66.57
2023-11-12T04:01:53.767Z,65.84
2023-11-12T04:04:19.865Z,66.42
2023-11-12T04:06:45.874Z,66.18
2023-11-12T04:09:12.345Z,66.30
2023-11-12T04:11:40.789Z,66.16
2023-11-12T04:14:07.697Z,66.06
2023-11-12T04:16:35.160Z,65.88
2023-11-12T04:19:03.370Z,66.00
2023-11-12T04:21:32.224Z,66.30
2023-11-12T04:23:58.585Z,66.05
2023-11-12T04:26:25.199Z,65.96
2023-11-12T04:28:51.284Z,66.15
2023-11-12T04:31:17.397Z,65.60
2023-11-12T04:33:43.262Z,65.87
2023-11-12T04:36:09.197Z,65.36
2023-11-12T04:38:35.033Z,65.81
2023-11-12T04:41:00.894Z,66.22
2023-11-12T04:43:26.740Z,66.00
2023-11-12T04:45:52.608Z,66.22
2023-11-12T04:48:18.603Z,65.45
2023-11-12T04:50:45.926Z,65.62
2023-11-12T04:53:12.338Z,65.54
2023-11-12T04:55:38.834Z,65.95
2023-11-12T04:58:07.840Z,65.58
2023-11-12T05:00:34.104Z,65.98
2023-11-12T05:03:03.961Z,66.18
2023-11-12T05:05:30.523Z,66.29
2023-11-12T05:07:56.351Z,66.44
2023-11-12T05:10:22.237Z,66.06
2023-11-12T05:13:08.637Z,66.25
2023-11-12T05:15:35.448Z,65.94
2023-11-12T05:18:06.265Z,66.49
2023-11-12T05:20:33.958Z,65.94
2023-11-12T05:23:01.778Z,66.38
2023-11-12T05:25:28.439Z,66.19
2023-11-12T05:27:55.184Z,66.31
2023-11-12T05:30:21.288Z,66.05
2023-11-12T05:32:51.319Z,66.74
2023-11-12T05:35:17.699Z,66.61
2023-11-12T05:37:43.540Z,65.78
2023-11-12T05:40:09.933Z,66.28
2023-11-12T05:42:35.823Z,66.16
2023-11-12T05:45:02.222Z,66.03
2023-11-12T05:47:28.227Z,65.99
2023-11-12T05:49:54.087Z,66.21
2023-11-12T05:52:19.879Z,65.72
2023-11-12T05:54:45.742Z,65.73
2023-11-12T05:57:11.562Z,66.23
2023-11-12T05:59:37.364Z,66.21
2023-11-12T06:02:03.389Z,66.04
2023-11-12T06:04:29.320Z,66.07
2023-11-12T06:06:55.160Z,66.63
2023-11-12T06:09:20.981Z,66.13
2023-11-12T06:11:48.215Z,65.94
2023-11-12T06:14:14.321Z,65.84
2023-11-12T06:16:40.210Z,65.78
2023-11-12T06:19:06.103Z,66.33
2023-11-12T06:21:32.108Z,66.50
2023-11-12T06:23:57.987Z,66.92
2023-11-12T06:26:23.780Z,66.40
2023-11-12T06:28:49.835Z,66.86
2023-11-12T06:31:18.898Z,67.23
2023-11-12T06:33:44.894Z,67.32
2023-11-12T06:36:14.544Z,67.65
2023-11-12T06:38:41.788Z,67.68
2023-11-12T06:41:09.107Z,68.09
2023-11-12T06:43:34.908Z,67.66
2023-11-12T06:46:00.692Z,68.35
2023-11-12T06:48:26.558Z,68.03
2023-11-12T06:50:52.409Z,67.99
2023-11-12T06:53:18.261Z,67.62
2023-11-12T06:55:44.117Z,67.83
2023-11-12T06:58:10.389Z,67.78
2023-11-12T07:00:36.394Z,67.31
2023-11-12T07:03:02.500Z,67.03
2023-11-12T07:05:30.844Z,66.24
2023-11-12T07:07:57.725Z,66.58
2023-11-12T07:10:23.739Z,66.26
2023-11-12T07:12:50.073Z,65.82
2023-11-12T07:15:16.013Z,65.65
2023-11-12T07:17:43.857Z,65.23
2023-11-12T07:20:11.730Z,65.17
2023-11-12T07:22:37.578Z,65.34
2023-11-12T07:25:03.993Z,64.85
2023-11-12T07:27:31.648Z,65.39
2023-11-12T07:29:57.757Z,65.50
2023-11-12T07:32:23.772Z,65.02
2023-11-12T07:34:49.880Z,65.40
2023-11-12T07:37:15.839Z,65.93
2023-11-12T07:39:41.852Z,65.94
2023-11-12T07:42:07.821Z,65.63
2023-11-12T07:44:35.706Z,65.13
2023-11-12T07:47:01.606Z,65.03
2023-11-12T07:49:27.500Z,64.57
2023-11-12T07:51:53.316Z,65.40
2023-11-12T07:54:19.130Z,65.33
2023-11-12T07:56:45.069Z,65.38
2023-11-12T07:59:11.304Z,65.54
2023-11-12T08:01:37.154Z,65.03
2023-11-12T08:04:03.150Z,65.04
2023-11-12T08:06:29.045Z,63.96
2023-11-12T08:08:54.964Z,63.75
2023-11-12T08:11:20.987Z,63.86
2023-11-12T08:13:47.427Z,62.95
2023-11-12T08:16:13.757Z,63.96
2023-11-12T08:18:43.731Z,63.51
2023-11-12T08:21:10.384Z,63.12
2023-11-12T08:23:36.792Z,63.48
2023-11-12T08:26:03.381Z,63.26
2023-11-12T08:28:29.901Z,63.18
2023-11-12T08:30:55.789Z,62.27
2023-11-12T08:33:22.323Z,62.22
2023-11-12T08:35:48.151Z,62.67
2023-11-12T08:38:14.090Z,62.78
2023-11-12T08:40:42.284Z,63.08
2023-11-12T08:43:13.539Z,61.39
2023-11-12T08:45:39.929Z,61.47
2023-11-12T08:48:05.911Z,61.70
2023-11-12T08:50:32.826Z,61.55
2023-11-12T08:53:01.364Z,61.30
2023-11-12T08:55:27.450Z,62.31
2023-11-12T08:57:53.446Z,61.47
2023-11-12T09:00:19.769Z,61.35
2023-11-12T09:02:46.602Z,61.25
2023-11-12T09:05:13.409Z,61.69
2023-11-12T09:07:39.285Z,61.80
2023-11-12T09:10:05.835Z,61.52
2023-11-12T09:12:32.759Z,60.43
2023-11-12T09:14:58.637Z,60.62
2023-11-12T09:17:24.511Z,61.05
2023-11-12T09:19:50.393Z,60.74
2023-11-12T09:22:16.296Z,60.37
2023-11-12T09:24:55.237Z,60.72
2023-11-12T09:27:30.494Z,59.67
2023-11-12T09:29:56.288Z,59.30
2023-11-12T09:32:22.152Z,59.41
2023-11-12T09:34:47.972Z,59.72
2023-11-12T09:37:13.797Z,59.48
2023-11-12T09:39:39.838Z,59.85
2023-11-12T09:42:07.648Z,59.82
2023-11-12T09:44:37.969Z,59.15
2023-11-12T09:47:21.351Z,59.45
2023-11-12T09:49:50.451Z,58.21
2023-11-12T09:52:16.501Z,58.54
2023-11-12T09:54:43.675Z,58.53
2023-11-12T09:57:10.056Z,58.21
2023-11-12T09:59:36.918Z,57.90
2023-11-12T10:02:06.014Z,58.00
2023-11-12T10:04:31.923Z,58.63
2023-11-12T10:06:58.346Z,58.24
2023-11-12T10:09:30.567Z,58.93
2023-11-12T10:12:04.068Z,57.99
2023-11-12T10:14:30.059Z,57.95
2023-11-12T10:17:07.084Z,57.33
2023-11-12T10:19:34.805Z,57.85
2023-11-12T10:22:02.328Z,57.25
2023-11-12T10:24:29.438Z,57.31
2023-11-12T10:27:05.536Z,57.33
2023-11-12T10:29:31.907Z,57.09
2023-11-12T10:31:58.101Z,57.37
2023-11-12T10:34:27.410Z,56.33
2023-11-12T10:37:04.049Z,57.25
2023-11-12T10:39:41.084Z,55.76
2023-11-12T10:42:16.022Z,55.19
2023-11-12T10:44:43.146Z,55.16
2023-11-12T10:47:10.872Z,55.72
2023-11-12T10:49:40.046Z,55.71
2023-11-12T10:52:06.904Z,55.05
2023-11-12T10:54:33.492Z,55.13
2023-11-12T10:57:00.384Z,55.55
2023-11-12T10:59:29.068Z,55.73
2023-11-12T11:01:58.674Z,55.52
2023-11-12T11:04:27.053Z,55.71
2023-11-12T11:06:53.210Z,54.79
2023-11-12T11:09:21.345Z,54.60
2023-11-12T11:11:49.679Z,53.62
2023-11-12T11:14:28.287Z,53.26
2023-11-12T11:16:54.913Z,54.76
2023-11-12T11:19:43.749Z,55.61
2023-11-12T11:22:25.434Z,54.83
2023-11-12T11:24:55.375Z,54.06
2023-11-12T11:27:28.714Z,54.05
2023-11-12T11:30:15.864Z,54.17
2023-11-12T11:32:59.757Z,55.50
2023-11-12T11:35:27.038Z,54.78
2023-11-12T11:38:12.984Z,54.25
2023-11-12T11:40:40.686Z,53.26
2023-11-12T11:43:26.194Z,53.55
2023-11-12T11:46:04.313Z,54.10
2023-11-12T11:48:30.324Z,54.17
2023-11-12T11:50:59.518Z,53.91
2023-11-12T11:53:26.677Z,54.66
2023-11-12T11:56:02.164Z,53.98
2023-11-12T11:58:35.972Z,54.16
2023-11-12T12:01:01.877Z,53.60
2023-11-12T12:03:29.732Z,52.85
2023-11-12T12:05:55.900Z,53.25
2023-11-12T12:08:21.751Z,53.44
2023-11-12T12:10:48.704Z,52.80
2023-11-12T12:13:15.624Z,51.32
2023-11-12T12:15:46.099Z,52.44
2023-11-12T12:18:24.100Z,52.32
2023-11-12T12:20:52.473Z,52.40
2023-11-12T12:23:20.723Z,53.02
2023-11-12T12:25:55.652Z,52.32
2023-11-12T12:28:26.790Z,52.69
2023-11-12T12:30:53.104Z,50.80
2023-11-12T12:33:18.985Z,50.26
2023-11-12T12:35:44.818Z,50.85
2023-11-12T12:38:11.227Z,51.28
2023-11-12T12:40:37.664Z,50.96
2023-11-12T12:43:07.010Z,51.74
2023-11-12T12:45:34.990Z,50.46
2023-11-12T12:48:10.948Z,49.98
2023-11-12T12:50:36.930Z,49.72
2023-11-12T12:53:15.416Z,49.91
2023-11-12T12:55:43.753Z,49.81
2023-11-12T12:58:10.659Z,50.73
2023-11-12T13:00:39.138Z,51.43
2023-11-12T13:03:13.975Z,51.28
2023-11-12T13:05:39.841Z,50.88
2023-11-12T13:08:08.561Z,51.25
2023-11-12T13:10:34.548Z,51.48
2023-11-12T13:13:00.544Z,51.15
2023-11-12T13:15:26.920Z,51.33
2023-11-12T13:17:52.898Z,50.94
2023-11-12T13:20:21.780Z,50.92
2023-11-12T13:22:48.701Z,51.01
2023-11-12T13:25:15.986Z,50.43
2023-11-12T13:27:46.258Z,50.98
2023-11-12T13:30:13.124Z,51.04
2023-11-12T13:32:40.441Z,50.00
2023-11-12T13:35:07.635Z,50.38
2023-11-12T13:37:35.154Z,50.59
2023-11-12T13:40:05.729Z,50.67
2023-11-12T13:42:36.351Z,50.20
2023-11-12T13:45:05.719Z,49.86
2023-11-12T13:47:32.107Z,51.51
2023-11-12T13:49:57.925Z,50.54
2023-11-12T13:52:23.742Z,49.63
2023-11-12T13:54:50.539Z,49.58
2023-11-12T13:57:16.535Z,49.13
2023-11-12T13:59:42.477Z,52.07
2023-11-12T14:02:11.404Z,51.15
2023-11-12T14:04:37.420Z,49.38
2023-11-12T14:07:04.859Z,49.59
2023-11-12T14:09:33.448Z,49.60
2023-11-12T14:12:06.003Z,50.71
2023-11-12T14:14:32.383Z,49.58
2023-11-12T14:16:58.386Z,50.07
2023-11-12T14:19:27.757Z,50.74
2023-11-12T14:21:56.672Z,51.72
2023-11-12T14:24:26.585Z,51.17
2023-11-12T14:26:52.492Z,52.08
2023-11-12T14:29:19.497Z,53.21
2023-11-12T14:31:46.597Z,52.24
2023-11-12T14:34:13.248Z,51.06
2023-11-12T14:36:40.819Z,51.87
2023-11-12T14:39:11.002Z,53.65
2023-11-12T14:41:41.139Z,54.17
2023-11-12T14:44:07.771Z,54.26
2023-11-12T14:46:36.424Z,55.62
2023-11-12T14:49:05.788Z,55.46
2023-11-12T14:51:33.830Z,55.45
2023-11-12T14:54:05.584Z,56.00
2023-11-12T14:56:32.652Z,56.71
2023-11-12T14:58:58.578Z,56.66
2023-11-12T15:01:24.500Z,56.46
2023-11-12T15:03:50.350Z,56.96
2023-11-12T15:06:16.220Z,57.45
2023-11-12T15:08:42.045Z,57.61
2023-11-12T15:11:08.921Z,57.94
2023-11-12T15:13:34.730Z,58.64
2023-11-12T15:16:00.608Z,59.32
2023-11-12T15:18:27.699Z,59.77
2023-11-12T15:20:53.545Z,60.15
2023-11-12T15:23:19.327Z,60.37
2023-11-12T15:25:45.134Z,60.81
2023-11-12T15:28:11.448Z,61.12
2023-11-12T15:30:37.315Z,61.69
2023-11-12T15:33:06.819Z,61.85
2023-11-12T15:35:33.153Z,61.87
2023-11-12T15:37:59.018Z,61.84
2023-11-12T15:40:24.864Z,62.61
2023-11-12T15:42:52.384Z,62.71
2023-11-12T15:45:18.877Z,63.05
2023-11-12T15:47:46.622Z,63.28
2023-11-12T15:50:13.963Z,63.89
2023-11-12T15:52:40.745Z,65.59
2023-11-12T15:55:08.888Z,65.84
2023-11-12T15:57:37.346Z,65.93
2023-11-12T16:00:08.270Z,65.39
2023-11-12T16:02:38.617Z,65.48
2023-11-12T16:05:05.202Z,65.94
2023-11-12T16:07:31.343Z,66.68
2023-11-12T16:09:58.170Z,67.03
2023-11-12T16:12:25.373Z,66.35
2023-11-12T16:14:51.622Z,66.52
2023-11-12T16:17:17.471Z,66.38
2023-11-12T16:19:43.261Z,66.19
2023-11-12T16:22:09.323Z,66.38
2023-11-12T16:24:35.174Z,66.54
2023-11-12T16:27:01.056Z,66.96
2023-11-12T16:29:26.910Z,67.47
2023-11-12T16:32:09.462Z,68.00
2023-11-12T16:34:36.317Z,68.01
2023-11-12T16:37:02.704Z,67.92
2023-11-12T16:39:32.026Z,67.50
2023-11-12T16:41:58.029Z,67.87
2023-11-12T16:44:24.892Z,68.05
2023-11-12T16:46:51.972Z,67.71
2023-11-12T16:49:17.826Z,67.96
2023-11-12T16:51:43.723Z,68.14
2023-11-12T16:54:09.564Z,67.97
2023-11-12T16:56:35.942Z,68.13
2023-11-12T16:59:01.942Z,68.59
2023-11-12T17:01:27.863Z,68.62
2023-11-12T17:03:53.894Z,68.79
2023-11-12T17:06:19.766Z,68.51
2023-11-12T17:08:45.539Z,68.55
2023-11-12T17:11:11.459Z,68.64
2023-11-12T17:13:37.307Z,68.99
2023-11-12T17:16:03.423Z,69.22
2023-11-12T17:18:29.398Z,68.88
2023-11-12T17:20:55.261Z,69.14
2023-11-12T17:23:21.134Z,69.35
2023-11-12T17:25:48.828Z,68.80
2023-11-12T17:28:14.648Z,68.92
2023-11-12T17:30:40.532Z,68.72
2023-11-12T17:33:07.429Z,68.46
2023-11-12T17:35:34.003Z,69.07
2023-11-12T17:37:59.871Z,69.17
2023-11-12T17:40:27.724Z,69.59
2023-11-12T17:42:53.528Z,69.20
2023-11-12T17:45:19.514Z,69.69
2023-11-12T17:47:45.380Z,69.41
2023-11-12T17:50:11.280Z,69.01
2023-11-12T17:52:37.142Z,69.26
2023-11-12T17:55:03.298Z,69.35
2023-11-12T17:57:31.099Z,69.71
2023-11-12T17:59:56.973Z,69.71
2023-11-12T18:02:23.579Z,70.45
2023-11-12T18:04:49.548Z,70.79
2023-11-12T18:07:15.586Z,71.10
2023-11-12T18:09:41.480Z,70.54
2023-11-12T18:12:07.579Z,70.43
2023-11-12T18:14:33.424Z,70.25
2023-11-12T18:16:59.648Z,69.61
2023-11-12T18:21:51.752Z,69.98
2023-11-12T18:24:17.591Z,69.61
2023-11-12T18:26:51.429Z,69.38
2023-11-12T18:29:18.161Z,69.17
2023-11-12T18:31:44.221Z,68.94
2023-11-12T18:34:10.747Z,69.25
2023-11-12T18:36:36.818Z,69.58
2023-11-12T18:39:02.923Z,69.01
2023-11-12T18:41:29.700Z,69.57
2023-11-12T18:43:55.589Z,70.25
2023-11-12T18:46:22.185Z,70.56
2023-11-12T18:48:49.610Z,70.31
2023-11-12T18:51:17.099Z,70.10
2023-11-12T18:53:44.707Z,71.19
2023-11-12T18:56:10.791Z,70.92
2023-11-12T18:58:36.725Z,71.08
2023-11-12T19:01:02.656Z,71.04
2023-11-12T19:03:29.679Z,70.97
2023-11-12T19:05:55.547Z,70.88
2023-11-12T19:08:21.427Z,71.22
2023-11-12T19:10:49.002Z,70.25
2023-11-12T19:13:14.916Z,70.38
2023-11-12T19:15:40.796Z,69.86
2023-11-12T19:18:06.694Z,69.62
2023-11-12T19:20:36.959Z,70.23
2023-11-12T19:23:03.445Z,70.52
2023-11-12T19:25:29.456Z,70.54
2023-11-12T19:27:55.409Z,70.23
2023-11-12T19:30:23.625Z,71.05
2023-11-12T19:32:50.292Z,71.59
2023-11-12T19:35:17.111Z,71.34
2023-11-12T19:37:44.591Z,71.61
2023-11-12T19:40:16.693Z,71.21
2023-11-12T19:42:42.749Z,71.28
2023-11-12T19:45:12.077Z,71.47
2023-11-12T19:47:37.922Z,71.09
2023-11-12T19:50:06.464Z,71.20
2023-11-12T19:52:33.540Z,70.35
2023-11-12T19:54:59.425Z,70.81
2023-11-12T19:57:26.938Z,70.63
2023-11-12T19:59:54.142Z,70.41
2023-11-12T20:02:19.943Z,70.11
2023-11-12T20:04:45.773Z,70.91
2023-11-12T20:07:11.924Z,70.92
2023-11-12T20:09:38.929Z,70.72
2023-11-12T20:12:06.261Z,71.02
2023-11-12T20:14:32.166Z,71.01
2023-11-12T20:17:01.145Z,71.51
2023-11-12T20:19:27.933Z,71.34
2023-11-12T20:21:54.335Z,71.72
2023-11-12T20:24:20.459Z,71.31
2023-11-12T20:26:51.719Z,72.29
2023-11-12T20:29:21.206Z,72.26
2023-11-12T20:31:51.772Z,71.69
2023-11-12T20:34:17.854Z,71.13
2023-11-12T20:36:47.044Z,71.57
2023-11-12T20:39:16.135Z,71.50
2023-11-12T20:41:46.318Z,72.21
2023-11-12T20:44:13.511Z,71.64
2023-11-12T20:46:45.276Z,71.74
2023-11-12T20:49:16.315Z,71.66
2023-11-12T20:51:51.701Z,71.77
2023-11-12T20:54:17.594Z,71.75
2023-11-12T20:56:43.710Z,71.92
2023-11-12T20:59:10.319Z,72.47
2023-11-12T21:01:36.969Z,72.30
2023-11-12T21:04:03.419Z,71.68
2023-11-12T21:06:30.235Z,71.32
2023-11-12T21:08:56.256Z,71.34
2023-11-12T21:11:22.773Z,71.09
2023-11-12T21:13:51.068Z,70.52
2023-11-12T21:16:20.546Z,70.96
2023-11-12T21:18:47.722Z,71.57
2023-11-12T21:21:16.061Z,71.62
2023-11-12T21:23:41.867Z,71.30
2023-11-12T21:26:13.224Z,71.54
2023-11-12T21:28:39.081Z,71.67
2023-11-12T21:31:06.112Z,71.29
2023-11-12T21:33:32.315Z,71.81
2023-11-12T21:35:59.454Z,72.09
2023-11-12T21:38:25.430Z,72.84
2023-11-12T21:40:51.323Z,72.69
2023-11-12T21:43:17.203Z,73.28
2023-11-12T21:45:45.063Z,72.87
2023-11-12T21:48:12.386Z,72.68
2023-11-12T21:50:38.421Z,72.67
2023-11-12T21:53:04.417Z,72.27
2023-11-12T21:55:30.249Z,72.14
2023-11-12T21:57:56.608Z,72.61
2023-11-12T22:00:26.689Z,72.33
2023-11-12T22:02:56.484Z,72.58
2023-11-12T22:05:25.020Z,72.18
2023-11-12T22:07:51.217Z,72.78
2023-11-12T22:10:17.201Z,71.99
2023-11-12T22:12:44.069Z,72.33
2023-11-12T22:15:13.624Z,71.97
2023-11-12T22:17:40.697Z,72.26
2023-11-12T22:20:06.992Z,72.15
2023-11-12T22:22:33.141Z,71.73
2023-11-12T22:25:08.695Z,72.14
2023-11-12T22:27:43.469Z,72.53
2023-11-12T22:30:11.536Z,72.42
2023-11-12T22:32:37.875Z,72.06
2023-11-12T22:35:06.595Z,72.29
2023-11-12T22:37:32.453Z,72.25
2023-11-12T22:39:58.470Z,71.28
2023-11-12T22:42:24.722Z,71.53
2023-11-12T22:44:50.541Z,71.19
2023-11-12T22:47:16.410Z,71.71
2023-11-12T22:49:42.234Z,72.34
2023-11-12T22:52:08.036Z,72.49
2023-11-12T22:54:34.850Z,72.23
2023-11-12T22:57:00.680Z,72.13
2023-11-12T22:59:26.633Z,72.62
2023-11-12T23:01:52.518Z,72.71
2023-11-12T23:04:18.629Z,72.96
2023-11-12T23:06:44.979Z,72.54
2023-11-12T23:09:11.672Z,72.69
2023-11-12T23:11:37.464Z,72.85
2023-11-12T23:14:04.564Z,73.07
2023-11-12T23:16:30.442Z,72.84
2023-11-12T23:18:56.364Z,73.02
2023-11-12T23:21:22.206Z,72.86
2023-11-12T23:23:48.094Z,73.26
2023-11-12T23:26:13.945Z,73.08
2023-11-12T23:28:39.780Z,73.16
2023-11-12T23:31:05.664Z,72.81
2023-11-12T23:33:31.595Z,73.00
2023-11-12T23:35:57.570Z,73.03
2023-11-12T23:38:23.385Z,72.41
2023-11-12T23:40:49.250Z,73.00
2023-11-12T23:43:16.199Z,73.05
2023-11-12T23:45:42.426Z,72.79
2023-11-12T23:48:08.598Z,72.54
2023-11-12T23:50:35.103Z,72.82
2023-11-12T23:53:00.933Z,72.75
2023-11-12T23:55:26.852Z,73.09
2023-11-12T23:57:52.903Z,73.24
